Time;durP1;ratioP1;P1;durP2;ratioP2;P2;SDS_P1;SDS_P2;PMS_P1;PMS_P2;Temp;Humidity;BMP_temperature;BMP_pressure;BME280_temperature;BME280_humidity;BME280_pressure;Samples;Min_cycle;Max_cycle;Signal;HPM_P1;HPM_P2
2023/06/10 00:00:14;;;;;;;;;;;16.40;99.90;;;;;;5054152;28;19909;-81
2023/06/10 00:02:40;;;;;;;;;;;16.30;99.90;;;;;;5050490;28;19978;-82
2023/06/10 00:05:07;;;;;;;;;;;16.20;99.90;;;;;;5062686;28;19909;-83
2023/06/10 00:07:33;;;;;;;;;;;16.20;99.90;;;;;;5057576;28;19913;-79
2023/06/10 00:09:59;;;;;;;;;;;16.20;99.90;;;;;;5062584;28;19922;-80
2023/06/10 00:12:25;;;;;;;;;;;16.40;99.90;;;;;;5050950;28;20580;-84
2023/06/10 00:14:53;;;;;;;;;;;16.50;99.90;;;;;;5061433;28;19920;-79
2023/06/10 00:17:18;;;;;;;;;;;16.30;99.90;;;;;;5042152;28;19990;-79
2023/06/10 00:19:46;;;;;;;;;;;16.20;99.90;;;;;;5062730;28;20698;-84
2023/06/10 00:22:12;;;;;;;;;;;16.20;99.90;;;;;;5040121;28;20352;-79
2023/06/10 00:24:38;;;;;;;;;;;16.30;99.90;;;;;;5059008;28;19966;-83
2023/06/10 00:27:06;;;;;;;;;;;16.30;99.90;;;;;;5055144;28;20298;-83
2023/06/10 00:29:32;;;;;;;;;;;16.40;99.90;;;;;;5063687;28;19913;-80
2023/06/10 00:31:58;;;;;;;;;;;16.40;99.90;;;;;;5061530;28;19915;-79
2023/06/10 00:34:24;;;;;;;;;;;16.60;99.90;;;;;;5064646;28;19908;-81
2023/06/10 00:36:50;;;;;;;;;;;16.50;99.90;;;;;;5064143;28;19908;-80
2023/06/10 00:39:16;;;;;;;;;;;16.70;99.90;;;;;;5046576;28;20291;-82
2023/06/10 00:41:42;;;;;;;;;;;16.80;99.90;;;;;;5062969;28;19970;-83
2023/06/10 00:44:07;;;;;;;;;;;16.80;99.90;;;;;;5043869;28;20796;-81
2023/06/10 00:46:33;;;;;;;;;;;16.80;99.90;;;;;;5061160;28;19908;-80
2023/06/10 00:48:59;;;;;;;;;;;16.80;99.90;;;;;;5059433;28;20415;-83
2023/06/10 00:51:25;;;;;;;;;;;16.70;99.90;;;;;;5065398;28;19909;-80
2023/06/10 00:53:52;;;;;;;;;;;16.60;99.90;;;;;;5068875;28;19959;-78
2023/06/10 00:56:17;;;;;;;;;;;16.50;99.90;;;;;;5066124;28;19908;-78
2023/06/10 00:58:43;;;;;;;;;;;16.40;99.90;;;;;;5067149;28;19915;-81
2023/06/10 01:01:10;;;;;;;;;;;16.40;99.90;;;;;;5061220;28;19947;-79
2023/06/10 01:03:37;;;;;;;;;;;16.20;99.90;;;;;;5064500;28;19916;-82
2023/06/10 01:06:17;;;;;;;;;;;16.10;99.90;;;;;;5047231;28;19909;-83
2023/06/10 01:08:50;;;;;;;;;;;16.10;99.90;;;;;;5065253;28;19958;-82
2023/06/10 01:11:19;;;;;;;;;;;16.00;99.90;;;;;;5062333;28;19943;-82
2023/06/10 01:13:45;;;;;;;;;;;15.90;99.90;;;;;;5061351;28;19962;-79
2023/06/10 01:16:11;;;;;;;;;;;15.90;99.90;;;;;;5059197;28;19913;-79
2023/06/10 01:18:38;;;;;;;;;;;15.90;99.90;;;;;;5065761;28;19924;-81
2023/06/10 01:21:04;;;;;;;;;;;15.90;99.90;;;;;;5065919;28;19912;-84
2023/06/10 01:23:29;;;;;;;;;;;15.90;99.90;;;;;;5058559;28;19921;-81
2023/06/10 01:25:59;;;;;;;;;;;15.90;99.90;;;;;;5059216;28;19908;-80
2023/06/10 01:28:33;;;;;;;;;;;15.90;99.90;;;;;;5066895;28;19923;-78
2023/06/10 01:31:07;;;;;;;;;;;16.00;99.90;;;;;;5056280;28;20002;-80
2023/06/10 01:33:35;;;;;;;;;;;16.10;99.90;;;;;;5062627;28;20357;-81
2023/06/10 01:36:01;;;;;;;;;;;16.00;99.90;;;;;;5051374;28;19940;-82
2023/06/10 01:38:29;;;;;;;;;;;16.00;99.90;;;;;;5054472;28;19958;-83
2023/06/10 01:40:55;;;;;;;;;;;15.90;99.90;;;;;;5049855;28;20415;-80
2023/06/10 01:43:21;;;;;;;;;;;15.90;99.90;;;;;;5044065;28;19967;-82
2023/06/10 01:45:46;;;;;;;;;;;15.90;99.90;;;;;;5058493;28;19914;-81
2023/06/10 01:48:12;;;;;;;;;;;15.90;99.90;;;;;;5053674;28;19919;-87
2023/06/10 01:50:38;;;;;;;;;;;15.80;99.90;;;;;;5068062;28;20383;-81
2023/06/10 01:53:03;;;;;;;;;;;15.70;99.90;;;;;;5071324;28;19909;-81
2023/06/10 01:55:29;;;;;;;;;;;15.70;99.90;;;;;;5051876;28;19912;-80
2023/06/10 01:57:55;;;;;;;;;;;15.70;99.90;;;;;;5050987;28;19908;-79
2023/06/10 02:00:20;;;;;;;;;;;15.60;99.90;;;;;;5068145;28;19920;-82
2023/06/10 02:02:46;;;;;;;;;;;15.70;99.90;;;;;;5062818;28;19912;-80
2023/06/10 02:05:11;;;;;;;;;;;15.70;99.90;;;;;;5067237;28;20623;-79
2023/06/10 02:07:37;;;;;;;;;;;15.70;99.90;;;;;;5044006;28;19920;-80
2023/06/10 02:10:04;;;;;;;;;;;15.70;99.90;;;;;;5057087;28;20152;-84
2023/06/10 02:12:29;;;;;;;;;;;15.70;99.90;;;;;;5067930;28;20437;-82
2023/06/10 02:14:55;;;;;;;;;;;15.70;99.90;;;;;;5043688;28;19909;-80
2023/06/10 02:17:20;;;;;;;;;;;15.70;99.90;;;;;;5048563;28;19994;-80
2023/06/10 02:19:52;;;;;;;;;;;15.80;99.90;;;;;;5068418;28;19908;-82
2023/06/10 02:22:21;;;;;;;;;;;15.90;99.90;;;;;;5067781;28;20018;-81
2023/06/10 02:24:47;;;;;;;;;;;16.00;99.90;;;;;;5064383;28;19920;-78
2023/06/10 02:27:13;;;;;;;;;;;16.00;99.90;;;;;;5068201;28;20576;-83
2023/06/10 02:29:38;;;;;;;;;;;16.10;99.90;;;;;;5068678;28;19935;-80
2023/06/10 02:32:04;;;;;;;;;;;16.30;99.90;;;;;;5046488;28;20368;-80
2023/06/10 02:34:29;;;;;;;;;;;16.40;99.90;;;;;;5067974;28;19909;-81
2023/06/10 02:36:55;;;;;;;;;;;16.40;99.90;;;;;;5060012;28;19916;-83
2023/06/10 02:39:21;;;;;;;;;;;16.30;99.90;;;;;;5051147;28;19934;-82
2023/06/10 02:41:47;;;;;;;;;;;16.30;99.90;;;;;;5045749;28;19947;-79
2023/06/10 02:44:12;;;;;;;;;;;16.20;99.90;;;;;;5070920;28;20340;-84
2023/06/10 02:46:38;;;;;;;;;;;16.20;99.90;;;;;;5065028;28;20340;-81
2023/06/10 02:49:04;;;;;;;;;;;16.20;99.90;;;;;;5068999;28;20045;-79
2023/06/10 02:51:29;;;;;;;;;;;16.20;99.90;;;;;;5060894;28;19908;-79
2023/06/10 02:53:55;;;;;;;;;;;16.00;99.90;;;;;;5065052;28;19908;-79
2023/06/10 02:56:21;;;;;;;;;;;16.00;99.90;;;;;;5060216;28;19964;-81
2023/06/10 02:58:48;;;;;;;;;;;16.10;99.90;;;;;;5066356;28;20022;-79
2023/06/10 03:01:13;;;;;;;;;;;16.00;99.90;;;;;;5043533;28;19951;-81
2023/06/10 03:03:42;;;;;;;;;;;15.90;99.90;;;;;;5060035;28;20399;-79
2023/06/10 03:06:10;;;;;;;;;;;15.90;99.90;;;;;;5056622;28;20352;-82
2023/06/10 03:08:36;;;;;;;;;;;16.00;99.90;;;;;;5055825;28;19959;-81
2023/06/10 03:11:02;;;;;;;;;;;16.00;99.90;;;;;;5055636;28;20039;-82
2023/06/10 03:13:28;;;;;;;;;;;16.10;99.90;;;;;;5063281;28;19912;-85
2023/06/10 03:15:53;;;;;;;;;;;16.10;99.90;;;;;;5060198;28;20007;-84
2023/06/10 03:18:19;;;;;;;;;;;16.00;99.90;;;;;;5061913;28;19909;-82
2023/06/10 03:20:45;;;;;;;;;;;15.90;99.90;;;;;;5065475;28;19905;-87
2023/06/10 03:23:10;;;;;;;;;;;15.90;99.90;;;;;;5065535;28;19912;-79
2023/06/10 03:25:36;;;;;;;;;;;16.00;99.90;;;;;;5048236;28;19961;-80
2023/06/10 03:28:02;;;;;;;;;;;16.00;99.90;;;;;;5066666;28;20043;-79
2023/06/10 03:30:27;;;;;;;;;;;16.00;99.90;;;;;;5066543;28;19908;-83
2023/06/10 03:32:53;;;;;;;;;;;16.10;99.90;;;;;;5066725;28;19994;-84
2023/06/10 03:35:18;;;;;;;;;;;16.10;99.90;;;;;;5058847;28;19912;-83
2023/06/10 03:37:44;;;;;;;;;;;16.10;99.90;;;;;;5058901;28;20011;-87
2023/06/10 03:40:10;;;;;;;;;;;16.00;99.90;;;;;;5067865;28;19934;-80
2023/06/10 03:42:35;;;;;;;;;;;16.00;99.90;;;;;;5061628;28;19909;-84
2023/06/10 03:45:01;;;;;;;;;;;15.90;99.90;;;;;;5059214;28;19912;-79
2023/06/10 03:47:33;;;;;;;;;;;15.80;99.90;;;;;;5065259;28;19912;-78
2023/06/10 03:49:58;;;;;;;;;;;15.70;99.90;;;;;;5036442;28;19952;-83
2023/06/10 03:52:24;;;;;;;;;;;15.60;99.90;;;;;;5052690;28;19971;-82
2023/06/10 03:54:50;;;;;;;;;;;15.60;99.90;;;;;;5064326;28;19952;-79
2023/06/10 03:57:15;;;;;;;;;;;15.60;99.90;;;;;;5054775;28;19908;-81
2023/06/10 03:59:41;;;;;;;;;;;15.60;99.90;;;;;;5064640;28;19912;-82
2023/06/10 04:02:08;;;;;;;;;;;15.50;99.90;;;;;;5054587;28;19916;-83
2023/06/10 04:04:34;;;;;;;;;;;15.40;99.90;;;;;;5043090;28;19969;-85
2023/06/10 04:07:00;;;;;;;;;;;15.40;99.90;;;;;;5064299;28;19916;-80
2023/06/10 04:09:25;;;;;;;;;;;15.40;99.90;;;;;;5051046;28;19928;-82
2023/06/10 04:11:51;;;;;;;;;;;15.50;99.90;;;;;;5058928;28;19912;-80
2023/06/10 04:14:17;;;;;;;;;;;15.50;99.90;;;;;;5044619;28;19920;-83
2023/06/10 04:16:42;;;;;;;;;;;15.50;99.90;;;;;;5033080;28;20371;-83
2023/06/10 04:19:08;;;;;;;;;;;15.60;99.90;;;;;;5056727;28;19908;-84
2023/06/10 04:21:33;;;;;;;;;;;15.70;99.90;;;;;;5063686;28;19908;-83
2023/06/10 04:23:59;;;;;;;;;;;15.70;99.90;;;;;;5057761;28;19944;-83
2023/06/10 04:26:25;;;;;;;;;;;15.80;99.90;;;;;;5058766;28;19999;-83
2023/06/10 04:28:52;;;;;;;;;;;15.90;99.90;;;;;;5059744;28;19932;-83
2023/06/10 04:31:17;;;;;;;;;;;16.00;99.90;;;;;;5060729;28;19912;-84
2023/06/10 04:33:43;;;;;;;;;;;16.10;99.90;;;;;;5063629;28;19946;-84
2023/06/10 04:36:09;;;;;;;;;;;16.00;99.90;;;;;;5063055;28;20457;-83
2023/06/10 04:38:34;;;;;;;;;;;16.10;99.90;;;;;;5062402;28;19999;-84
2023/06/10 04:41:00;;;;;;;;;;;16.10;99.90;;;;;;5052970;28;19927;-83
2023/06/10 04:43:25;;;;;;;;;;;16.10;99.90;;;;;;5059386;28;19916;-85
2023/06/10 04:45:51;;;;;;;;;;;16.20;99.90;;;;;;5060252;28;19998;-87
2023/06/10 04:48:17;;;;;;;;;;;16.30;99.90;;;;;;5052189;28;19967;-87
2023/06/10 04:50:42;;;;;;;;;;;16.70;99.90;;;;;;5043081;28;19920;-89
2023/06/10 04:53:08;;;;;;;;;;;17.20;99.90;;;;;;5060991;28;19912;-88
2023/06/10 04:55:34;;;;;;;;;;;17.60;99.90;;;;;;5063343;28;20015;-88
2023/06/10 04:57:59;;;;;;;;;;;17.50;99.90;;;;;;5063406;28;19939;-87
2023/06/10 05:00:25;;;;;;;;;;;17.40;99.90;;;;;;5059235;28;19920;-86
2023/06/10 05:02:51;;;;;;;;;;;17.30;99.90;;;;;;5044692;28;19920;-88
2023/06/10 05:05:17;;;;;;;;;;;17.30;99.90;;;;;;5062836;28;20339;-87
2023/06/10 05:07:43;;;;;;;;;;;17.50;99.90;;;;;;5058287;28;19955;-88
2023/06/10 05:10:08;;;;;;;;;;;17.50;99.90;;;;;;5057657;28;20433;-86
2023/06/10 05:12:34;;;;;;;;;;;17.60;99.90;;;;;;5061356;28;19912;-86
2023/06/10 05:15:00;;;;;;;;;;;17.50;99.90;;;;;;5061053;28;20065;-88
2023/06/10 05:17:25;;;;;;;;;;;17.50;99.90;;;;;;5062306;28;20442;-87
2023/06/10 05:19:51;;;;;;;;;;;17.60;99.90;;;;;;5059460;28;19924;-88
2023/06/10 05:22:17;;;;;;;;;;;17.50;99.90;;;;;;5051212;28;19920;-86
2023/06/10 05:24:46;;;;;;;;;;;17.40;99.90;;;;;;5055545;28;19920;-89
2023/06/10 05:27:11;;;;;;;;;;;17.40;99.90;;;;;;5052477;28;20371;-88
2023/06/10 05:29:37;;;;;;;;;;;17.50;99.90;;;;;;5056588;28;19919;-88
2023/06/10 05:32:03;;;;;;;;;;;17.50;99.90;;;;;;5055033;28;19913;-89
2023/06/10 05:34:29;;;;;;;;;;;17.70;99.90;;;;;;5057367;28;20730;-87
2023/06/10 05:36:55;;;;;;;;;;;17.70;99.90;;;;;;5058245;28;19912;-88
2023/06/10 05:39:20;;;;;;;;;;;17.60;99.90;;;;;;5057485;28;19998;-87
2023/06/10 05:41:46;;;;;;;;;;;17.60;99.90;;;;;;5054906;28;19966;-85
2023/06/10 05:44:11;;;;;;;;;;;17.60;99.90;;;;;;5054832;28;19952;-82
2023/06/10 05:46:37;;;;;;;;;;;17.60;99.90;;;;;;5057495;28;20515;-86
2023/06/10 05:49:03;;;;;;;;;;;17.60;99.90;;;;;;5055369;28;20421;-84
2023/06/10 05:51:28;;;;;;;;;;;17.80;99.90;;;;;;5060480;28;19912;-84
2023/06/10 05:53:54;;;;;;;;;;;17.80;99.90;;;;;;5057950;28;20374;-87
2023/06/10 05:56:22;;;;;;;;;;;17.80;99.90;;;;;;5061592;28;19916;-85
2023/06/10 05:58:48;;;;;;;;;;;17.80;99.90;;;;;;5057073;28;19912;-85
2023/06/10 06:01:13;;;;;;;;;;;17.90;99.90;;;;;;5050752;28;19970;-82
2023/06/10 06:03:39;;;;;;;;;;;18.10;99.90;;;;;;5062426;28;19947;-83
2023/06/10 06:06:05;;;;;;;;;;;18.20;99.90;;;;;;5061647;28;19943;-83
2023/06/10 06:08:30;;;;;;;;;;;18.20;99.90;;;;;;5056982;28;19942;-83
2023/06/10 06:10:56;;;;;;;;;;;18.10;99.90;;;;;;5061956;28;20393;-82
2023/06/10 06:13:21;;;;;;;;;;;18.30;99.90;;;;;;5061827;28;19973;-83
2023/06/10 06:15:47;;;;;;;;;;;18.30;99.90;;;;;;5061896;28;19916;-83
2023/06/10 06:18:13;;;;;;;;;;;18.40;99.90;;;;;;5043254;28;19999;-83
2023/06/10 06:20:38;;;;;;;;;;;18.40;99.90;;;;;;5061334;28;19912;-83
2023/06/10 06:23:04;;;;;;;;;;;18.40;99.90;;;;;;5061371;28;20398;-83
2023/06/10 06:25:29;;;;;;;;;;;18.60;99.90;;;;;;5061053;28;19920;-82
2023/06/10 06:27:55;;;;;;;;;;;18.60;99.90;;;;;;5060560;28;19916;-83
2023/06/10 06:30:20;;;;;;;;;;;18.70;99.90;;;;;;5066085;28;19919;-82
2023/06/10 06:32:46;;;;;;;;;;;18.80;99.90;;;;;;5064978;28;19913;-83
2023/06/10 06:35:12;;;;;;;;;;;19.00;99.90;;;;;;5065490;28;19908;-83
2023/06/10 06:37:37;;;;;;;;;;;18.90;99.90;;;;;;5064967;28;20017;-83
2023/06/10 06:40:03;;;;;;;;;;;18.80;99.90;;;;;;5065746;28;20034;-83
2023/06/10 06:42:29;;;;;;;;;;;18.80;99.90;;;;;;5059543;28;19912;-83
2023/06/10 06:44:54;;;;;;;;;;;19.10;99.90;;;;;;5057945;28;20397;-84
2023/06/10 06:47:20;;;;;;;;;;;19.20;99.90;;;;;;5058030;28;19958;-83
2023/06/10 06:49:46;;;;;;;;;;;19.10;99.90;;;;;;5046830;28;19908;-83
2023/06/10 06:52:12;;;;;;;;;;;19.10;99.90;;;;;;5064030;28;20004;-83
2023/06/10 06:54:38;;;;;;;;;;;19.00;99.90;;;;;;5065054;28;19915;-83
2023/06/10 06:57:03;;;;;;;;;;;19.00;99.90;;;;;;5044983;28;19955;-82
2023/06/10 06:59:29;;;;;;;;;;;19.00;99.90;;;;;;5064243;28;19920;-83
2023/06/10 07:01:54;;;;;;;;;;;19.00;99.90;;;;;;5064437;28;20032;-83
2023/06/10 07:04:21;;;;;;;;;;;19.10;99.90;;;;;;5064580;28;19920;-83
2023/06/10 07:06:47;;;;;;;;;;;19.50;99.90;;;;;;5064598;28;19916;-83
2023/06/10 07:09:13;;;;;;;;;;;20.40;99.90;;;;;;5062456;28;19931;-83
2023/06/10 07:11:38;;;;;;;;;;;21.00;99.90;;;;;;5064535;28;19908;-83
2023/06/10 07:14:04;;;;;;;;;;;21.00;99.60;;;;;;5063821;28;19919;-83
2023/06/10 07:16:30;;;;;;;;;;;20.60;99.90;;;;;;5064269;28;19985;-83
2023/06/10 07:18:55;;;;;;;;;;;20.00;99.90;;;;;;5046183;28;19994;-83
2023/06/10 07:21:22;;;;;;;;;;;20.10;99.90;;;;;;5063263;28;19912;-83
2023/06/10 07:23:48;;;;;;;;;;;20.20;99.90;;;;;;5056265;28;19924;-83
2023/06/10 07:26:13;;;;;;;;;;;20.10;99.90;;;;;;5064730;28;19965;-83
2023/06/10 07:28:39;;;;;;;;;;;20.30;99.90;;;;;;5062043;28;19958;-83
2023/06/10 07:31:05;;;;;;;;;;;20.30;99.90;;;;;;5063890;28;19916;-83
2023/06/10 07:33:30;;;;;;;;;;;20.20;99.90;;;;;;5062819;28;20631;-83
2023/06/10 07:35:56;;;;;;;;;;;20.60;99.90;;;;;;5058844;28;19916;-83
2023/06/10 07:38:21;;;;;;;;;;;20.60;99.90;;;;;;5062743;28;19908;-83
2023/06/10 07:40:47;;;;;;;;;;;20.80;99.90;;;;;;5059716;28;19908;-83
2023/06/10 07:43:12;;;;;;;;;;;20.90;99.70;;;;;;5061796;28;20286;-83
2023/06/10 07:45:41;;;;;;;;;;;21.20;99.20;;;;;;5062570;28;20645;-83
2023/06/10 07:48:07;;;;;;;;;;;21.10;98.90;;;;;;5046835;28;19923;-83
2023/06/10 07:50:33;;;;;;;;;;;21.30;98.90;;;;;;5060510;28;19909;-83
2023/06/10 07:52:58;;;;;;;;;;;21.20;98.20;;;;;;5054721;28;19909;-83
2023/06/10 07:55:25;;;;;;;;;;;21.00;99.50;;;;;;5060155;28;20065;-84
2023/06/10 07:57:51;;;;;;;;;;;21.20;99.20;;;;;;5062284;28;19919;-83
2023/06/10 08:00:17;;;;;;;;;;;21.10;98.60;;;;;;5055759;28;19955;-83
2023/06/10 08:02:43;;;;;;;;;;;21.20;98.90;;;;;;5062727;28;20017;-83
2023/06/10 08:05:08;;;;;;;;;;;21.40;98.40;;;;;;5064111;28;19915;-83
2023/06/10 08:07:34;;;;;;;;;;;21.20;96.80;;;;;;5057991;28;19921;-83
2023/06/10 08:10:00;;;;;;;;;;;21.10;98.00;;;;;;5061237;28;19913;-83
2023/06/10 08:12:25;;;;;;;;;;;21.20;98.20;;;;;;5063174;28;19916;-83
2023/06/10 08:14:51;;;;;;;;;;;21.10;98.40;;;;;;5060390;28;19912;-83
2023/06/10 08:17:17;;;;;;;;;;;21.20;98.00;;;;;;5046333;28;19916;-83
2023/06/10 08:19:42;;;;;;;;;;;21.20;97.70;;;;;;5063114;28;19919;-83
2023/06/10 08:22:08;;;;;;;;;;;21.20;97.60;;;;;;5058407;28;19935;-82
2023/06/10 08:24:33;;;;;;;;;;;21.10;97.50;;;;;;5060760;28;19973;-83
2023/06/10 08:26:59;;;;;;;;;;;20.90;98.30;;;;;;5060933;28;20600;-84
2023/06/10 08:29:25;;;;;;;;;;;20.90;98.70;;;;;;5058115;28;19916;-83
2023/06/10 08:31:50;;;;;;;;;;;20.90;98.10;;;;;;5059675;28;19908;-83
2023/06/10 08:34:16;;;;;;;;;;;20.90;98.00;;;;;;5062392;28;19908;-83
2023/06/10 08:36:43;;;;;;;;;;;20.80;97.90;;;;;;5044237;28;19913;-83
2023/06/10 08:39:08;;;;;;;;;;;20.80;98.20;;;;;;5062326;28;19915;-83
2023/06/10 08:41:43;;;;;;;;;;;20.60;99.10;;;;;;5062637;28;19942;-83
2023/06/10 08:44:12;;;;;;;;;;;20.70;99.30;;;;;;5061966;28;19916;-83
2023/06/10 08:46:38;;;;;;;;;;;20.90;99.30;;;;;;5059748;28;19912;-83
2023/06/10 08:49:07;;;;;;;;;;;20.70;99.30;;;;;;5058044;28;19927;-84
2023/06/10 08:51:34;;;;;;;;;;;20.50;99.50;;;;;;5052861;28;21247;-84
2023/06/10 08:54:02;;;;;;;;;;;20.40;99.60;;;;;;5058581;28;20657;-84
2023/06/10 08:56:28;;;;;;;;;;;20.50;99.70;;;;;;5060918;28;20466;-85
2023/06/10 08:58:54;;;;;;;;;;;20.70;99.70;;;;;;5060260;28;19916;-84
2023/06/10 09:01:19;;;;;;;;;;;20.80;99.20;;;;;;5058076;28;19912;-81
2023/06/10 09:03:45;;;;;;;;;;;20.90;99.00;;;;;;5059116;28;21350;-78
2023/06/10 09:06:11;;;;;;;;;;;21.10;98.60;;;;;;5040550;28;19973;-79
2023/06/10 09:08:36;;;;;;;;;;;21.20;98.20;;;;;;5058252;28;19928;-83
2023/06/10 09:11:02;;;;;;;;;;;21.30;98.30;;;;;;5061644;28;19913;-83
2023/06/10 09:13:27;;;;;;;;;;;21.30;98.10;;;;;;5056551;28;19916;-86
2023/06/10 09:15:56;;;;;;;;;;;21.40;98.00;;;;;;5055281;28;20070;-82
2023/06/10 09:18:22;;;;;;;;;;;21.40;97.80;;;;;;5060899;28;19959;-82
2023/06/10 09:20:47;;;;;;;;;;;21.40;97.90;;;;;;5059300;28;19947;-83
2023/06/10 09:23:13;;;;;;;;;;;21.60;97.70;;;;;;5058821;28;19997;-85
2023/06/10 09:25:39;;;;;;;;;;;21.80;97.40;;;;;;5048171;28;20340;-83
2023/06/10 09:28:05;;;;;;;;;;;22.10;96.30;;;;;;5053798;28;19924;-83
2023/06/10 09:30:32;;;;;;;;;;;22.20;95.80;;;;;;5055702;28;19935;-83
2023/06/10 09:32:58;;;;;;;;;;;22.20;96.10;;;;;;5054979;28;19995;-81
2023/06/10 09:35:27;;;;;;;;;;;22.30;95.40;;;;;;5060216;28;19916;-81
2023/06/10 09:37:53;;;;;;;;;;;22.40;95.40;;;;;;5060130;28;20318;-82
2023/06/10 09:40:19;;;;;;;;;;;23.00;94.10;;;;;;5059096;28;19912;-83
2023/06/10 09:42:45;;;;;;;;;;;23.30;93.30;;;;;;5060993;28;19915;-83
2023/06/10 09:45:10;;;;;;;;;;;23.80;93.00;;;;;;5059382;28;19989;-83
2023/06/10 09:47:36;;;;;;;;;;;23.80;91.60;;;;;;5051286;28;19927;-82
2023/06/10 09:50:03;;;;;;;;;;;23.80;92.10;;;;;;5056235;28;19912;-81
2023/06/10 09:52:29;;;;;;;;;;;23.80;91.80;;;;;;5037726;28;19962;-81
2023/06/10 09:54:59;;;;;;;;;;;23.90;91.80;;;;;;5059435;28;19912;-82
2023/06/10 09:57:25;;;;;;;;;;;23.40;92.30;;;;;;5054647;28;19916;-82
2023/06/10 09:59:56;;;;;;;;;;;23.00;92.60;;;;;;5057979;28;19923;-83
2023/06/10 10:02:22;;;;;;;;;;;23.10;92.70;;;;;;5058411;28;19987;-81
2023/06/10 10:04:47;;;;;;;;;;;24.30;91.30;;;;;;5064063;28;20657;-82
2023/06/10 10:07:13;;;;;;;;;;;26.20;87.50;;;;;;5061495;28;20460;-83
2023/06/10 10:09:40;;;;;;;;;;;31.30;78.00;;;;;;5062015;28;19924;-83
2023/06/10 10:12:11;;;;;;;;;;;34.10;65.30;;;;;;5057578;28;19944;-84
2023/06/10 10:14:36;;;;;;;;;;;30.10;66.60;;;;;;5060626;28;20449;-84
2023/06/10 10:17:04;;;;;;;;;;;26.90;75.10;;;;;;5064386;28;20363;-83
2023/06/10 10:19:30;;;;;;;;;;;28.50;79.10;;;;;;5065151;28;19908;-82
2023/06/10 10:22:00;;;;;;;;;;;30.50;69.30;;;;;;5066268;28;19915;-83
2023/06/10 10:24:29;;;;;;;;;;;30.60;68.20;;;;;;5064216;28;19920;-83
2023/06/10 10:26:58;;;;;;;;;;;29.20;69.40;;;;;;5066443;28;19916;-83
2023/06/10 10:29:25;;;;;;;;;;;27.10;75.30;;;;;;5064297;28;19943;-83
2023/06/10 10:31:53;;;;;;;;;;;28.80;73.00;;;;;;5066421;28;19951;-83
2023/06/10 10:34:29;;;;;;;;;;;31.10;69.90;;;;;;5063545;28;19912;-83
2023/06/10 10:36:55;;;;;;;;;;;32.90;66.20;;;;;;5059894;28;19912;-81
2023/06/10 10:39:21;;;;;;;;;;;32.60;64.70;;;;;;5065936;28;19915;-83
2023/06/10 10:41:46;;;;;;;;;;;32.80;60.90;;;;;;5061829;28;19970;-84
2023/06/10 10:44:12;;;;;;;;;;;32.90;61.60;;;;;;5065414;28;20256;-83
2023/06/10 10:46:45;;;;;;;;;;;30.60;62.50;;;;;;5065248;28;19909;-83
2023/06/10 10:49:11;;;;;;;;;;;28.00;71.90;;;;;;5063760;28;20377;-83
2023/06/10 10:51:37;;;;;;;;;;;27.70;73.30;;;;;;5064512;28;20367;-83
2023/06/10 10:54:14;;;;;;;;;;;27.80;75.10;;;;;;5063772;28;19912;-83
2023/06/10 10:57:00;;;;;;;;;;;27.70;77.10;;;;;;5055785;28;19909;-83
2023/06/10 10:59:25;;;;;;;;;;;26.80;77.30;;;;;;5060373;28;19919;-83
2023/06/10 11:01:52;;;;;;;;;;;26.40;78.10;;;;;;5059896;28;19916;-82
2023/06/10 11:04:18;;;;;;;;;;;26.40;77.10;;;;;;5060202;28;20026;-83
2023/06/10 11:06:53;;;;;;;;;;;26.20;77.90;;;;;;5064973;28;19912;-83
2023/06/10 11:09:25;;;;;;;;;;;25.70;76.90;;;;;;5062610;28;19934;-81
2023/06/10 11:11:50;;;;;;;;;;;26.00;78.10;;;;;;5064914;28;20719;-81
2023/06/10 11:14:26;;;;;;;;;;;27.00;76.40;;;;;;5062131;28;19919;-81
2023/06/10 11:16:55;;;;;;;;;;;26.90;74.90;;;;;;5065334;28;19908;-81
2023/06/10 11:19:38;;;;;;;;;;;26.20;77.00;;;;;;5060282;28;19916;-81
2023/06/10 11:22:07;;;;;;;;;;;26.30;77.10;;;;;;5055032;28;20038;-81
2023/06/10 11:24:33;;;;;;;;;;;26.50;76.70;;;;;;5060838;28;19927;-81
2023/06/10 11:27:22;;;;;;;;;;;26.30;76.20;;;;;;5059890;28;19913;-81
2023/06/10 11:30:07;;;;;;;;;;;26.00;77.40;;;;;;5047751;28;19924;-82
2023/06/10 11:32:34;;;;;;;;;;;25.70;77.20;;;;;;5055414;28;20464;-82
2023/06/10 11:35:02;;;;;;;;;;;26.30;76.70;;;;;;5062802;28;20002;-81
2023/06/10 11:37:28;;;;;;;;;;;26.70;79.10;;;;;;5057208;28;19966;-81
2023/06/10 11:39:54;;;;;;;;;;;25.30;75.60;;;;;;5062985;28;20326;-81
2023/06/10 11:42:20;;;;;;;;;;;24.80;77.60;;;;;;5039332;28;19916;-81
2023/06/10 11:44:52;;;;;;;;;;;25.00;79.20;;;;;;5059558;28;19912;-81
2023/06/10 11:47:18;;;;;;;;;;;25.20;78.40;;;;;;5056618;28;20719;-81
2023/06/10 11:49:43;;;;;;;;;;;25.50;78.10;;;;;;5061480;28;19928;-82
2023/06/10 11:52:10;;;;;;;;;;;25.30;76.20;;;;;;5060869;28;20668;-81
2023/06/10 11:54:36;;;;;;;;;;;24.50;76.70;;;;;;5062387;28;20746;-81
2023/06/10 11:57:03;;;;;;;;;;;24.30;80.50;;;;;;5061040;28;20007;-79
2023/06/10 11:59:29;;;;;;;;;;;24.50;83.60;;;;;;5056033;28;19912;-79
2023/06/10 12:01:55;;;;;;;;;;;24.10;82.20;;;;;;5063302;28;19917;-80
2023/06/10 12:04:21;;;;;;;;;;;24.20;84.00;;;;;;5061554;28;19993;-79
2023/06/10 12:06:51;;;;;;;;;;;24.30;85.50;;;;;;5063208;28;20884;-79
2023/06/10 12:09:24;;;;;;;;;;;24.00;84.90;;;;;;5062986;28;19938;-79
2023/06/10 12:11:51;;;;;;;;;;;23.80;84.50;;;;;;5059559;28;19919;-80
2023/06/10 12:14:37;;;;;;;;;;;23.70;84.40;;;;;;5062172;28;19923;-79
2023/06/10 12:17:03;;;;;;;;;;;23.70;84.00;;;;;;5061576;28;20015;-80
2023/06/10 12:19:28;;;;;;;;;;;23.60;83.30;;;;;;5063616;28;20019;-80
2023/06/10 12:21:54;;;;;;;;;;;23.40;82.30;;;;;;5064233;28;19908;-79
2023/06/10 12:24:19;;;;;;;;;;;23.50;82.10;;;;;;5063709;28;19920;-79
2023/06/10 12:26:45;;;;;;;;;;;23.50;80.90;;;;;;5063427;28;19970;-79
2023/06/10 12:29:23;;;;;;;;;;;23.60;78.00;;;;;;5063281;28;20409;-79
2023/06/10 12:31:54;;;;;;;;;;;24.00;79.20;;;;;;5076017;28;19908;-79
2023/06/10 12:34:20;;;;;;;;;;;24.60;78.80;;;;;;5062830;28;20425;-80
2023/06/10 12:36:49;;;;;;;;;;;24.60;80.60;;;;;;5062788;28;19915;-85
2023/06/10 12:39:14;;;;;;;;;;;24.60;77.50;;;;;;5062808;28;20465;-81
2023/06/10 12:41:40;;;;;;;;;;;24.90;77.80;;;;;;5063527;28;19913;-83
2023/06/10 12:44:06;;;;;;;;;;;25.30;79.90;;;;;;5062583;28;20571;-81
2023/06/10 12:46:37;;;;;;;;;;;25.20;80.30;;;;;;5058033;28;20489;-82
2023/06/10 12:49:03;;;;;;;;;;;25.00;79.50;;;;;;5060519;28;19920;-79
2023/06/10 12:51:29;;;;;;;;;;;24.70;79.70;;;;;;5057333;28;19916;-79
2023/06/10 12:53:54;;;;;;;;;;;24.80;79.30;;;;;;5061608;28;19962;-80
2023/06/10 12:56:21;;;;;;;;;;;25.30;79.30;;;;;;5054293;28;20371;-78
2023/06/10 12:58:47;;;;;;;;;;;25.30;76.40;;;;;;5055820;28;19912;-78
2023/06/10 13:01:13;;;;;;;;;;;24.60;77.70;;;;;;5059768;28;19935;-78
2023/06/10 13:03:40;;;;;;;;;;;23.80;81.10;;;;;;5060550;28;20367;-78
2023/06/10 13:06:06;;;;;;;;;;;23.90;82.70;;;;;;5060237;28;20755;-78
2023/06/10 13:08:32;;;;;;;;;;;23.80;82.50;;;;;;5063250;28;20003;-78
2023/06/10 13:10:57;;;;;;;;;;;23.60;83.10;;;;;;5061031;28;20024;-78
2023/06/10 13:13:24;;;;;;;;;;;23.50;82.40;;;;;;5058106;28;19950;-78
2023/06/10 13:15:49;;;;;;;;;;;23.60;87.40;;;;;;5062037;28;20695;-79
2023/06/10 13:18:17;;;;;;;;;;;23.50;83.70;;;;;;5060881;28;19923;-78
2023/06/10 13:20:43;;;;;;;;;;;23.50;87.80;;;;;;5062397;28;19908;-78
2023/06/10 13:23:09;;;;;;;;;;;23.30;86.20;;;;;;5061946;28;19916;-79
2023/06/10 13:25:34;;;;;;;;;;;23.10;82.70;;;;;;5062543;28;19963;-78
2023/06/10 13:28:00;;;;;;;;;;;23.10;81.10;;;;;;5042090;28;19921;-78
2023/06/10 13:30:26;;;;;;;;;;;23.20;81.50;;;;;;5058636;28;19919;-79
2023/06/10 13:32:52;;;;;;;;;;;23.70;82.70;;;;;;5059975;28;19916;-77
2023/06/10 13:35:17;;;;;;;;;;;24.00;81.60;;;;;;5062299;28;20002;-79
2023/06/10 13:37:43;;;;;;;;;;;24.00;82.50;;;;;;5062194;28;20062;-78
2023/06/10 13:40:09;;;;;;;;;;;23.80;82.40;;;;;;5059122;28;19972;-79
2023/06/10 13:42:36;;;;;;;;;;;23.60;81.80;;;;;;5062034;28;19908;-80
2023/06/10 13:45:02;;;;;;;;;;;23.70;78.30;;;;;;5034151;28;19916;-79
2023/06/10 13:47:27;;;;;;;;;;;24.00;80.50;;;;;;5060781;28;19965;-79
2023/06/10 13:49:53;;;;;;;;;;;24.10;81.20;;;;;;5062104;28;19913;-79
2023/06/10 13:52:19;;;;;;;;;;;24.30;84.20;;;;;;5059771;28;19970;-79
2023/06/10 13:54:44;;;;;;;;;;;24.20;83.20;;;;;;5058492;28;19948;-79
2023/06/10 13:57:10;;;;;;;;;;;24.20;78.50;;;;;;5051666;28;20516;-80
2023/06/10 13:59:36;;;;;;;;;;;24.30;77.60;;;;;;5052300;28;19922;-79
2023/06/10 14:02:01;;;;;;;;;;;24.00;77.70;;;;;;5056759;28;19939;-79
2023/06/10 14:04:27;;;;;;;;;;;23.80;78.30;;;;;;5054673;28;19912;-77
2023/06/10 14:06:52;;;;;;;;;;;23.70;79.20;;;;;;5058530;28;19912;-78
2023/06/10 14:09:18;;;;;;;;;;;23.70;78.60;;;;;;5055368;28;20197;-78
2023/06/10 14:11:44;;;;;;;;;;;23.60;78.90;;;;;;5056061;28;19909;-78